createdAt,value
2023-02-03T00:00:10.787Z,3.24
2023-02-03T00:01:14.957Z,3.27
2023-02-03T00:02:19.209Z,3.31
2023-02-03T00:03:23.422Z,3.34
2023-02-03T00:04:27.540Z,3.36
2023-02-03T00:05:31.763Z,3.41
2023-02-03T00:06:35.974Z,3.44
2023-02-03T00:07:40.293Z,3.47
2023-02-03T00:08:44.540Z,3.52
2023-02-03T00:09:48.672Z,3.56
2023-02-03T00:10:52.968Z,3.60
2023-02-03T00:11:57.102Z,3.63
2023-02-03T00:13:01.303Z,3.66
2023-02-03T00:14:05.593Z,3.68
2023-02-03T00:15:09.805Z,3.70
2023-02-03T00:16:13.952Z,3.74
2023-02-03T00:17:18.191Z,3.77
2023-02-03T00:18:22.381Z,3.78
2023-02-03T00:19:26.597Z,3.81
2023-02-03T00:20:30.793Z,3.82
2023-02-03T00:21:34.959Z,3.86
2023-02-03T00:22:42.115Z,3.90
2023-02-03T00:23:45.349Z,3.91
2023-02-03T00:24:49.494Z,3.94
2023-02-03T00:25:53.647Z,3.95
2023-02-03T00:26:57.881Z,3.96
2023-02-03T00:28:01.987Z,3.98
2023-02-03T00:29:06.158Z,3.99
2023-02-03T00:30:10.265Z,4.02
2023-02-03T00:31:14.625Z,4.01
2023-02-03T00:32:18.875Z,4.02
2023-02-03T00:33:22.992Z,4.03
2023-02-03T00:34:27.155Z,4.03
2023-02-03T00:35:31.494Z,4.03
2023-02-03T00:36:35.598Z,4.03
2023-02-03T00:37:39.839Z,4.03
2023-02-03T00:38:44.050Z,4.03
2023-02-03T00:39:48.190Z,4.03
2023-02-03T00:40:52.438Z,4.03
2023-02-03T00:41:56.566Z,4.02
2023-02-03T00:44:27.452Z,4.03
2023-02-03T00:45:31.654Z,4.03
2023-02-03T00:46:35.713Z,4.02
2023-02-03T00:47:39.845Z,4.02
2023-02-03T00:48:43.986Z,4.02
2023-02-03T00:49:48.274Z,4.02
2023-02-03T00:50:52.470Z,4.01
2023-02-03T00:51:56.546Z,4.00
2023-02-03T00:53:00.660Z,3.98
2023-02-03T00:54:04.918Z,3.96
2023-02-03T00:55:09.080Z,3.94
2023-02-03T00:56:13.275Z,3.94
2023-02-03T00:57:17.470Z,3.93
2023-02-03T00:58:21.578Z,3.92
2023-02-03T00:59:28.778Z,3.92
2023-02-03T01:00:31.939Z,3.91
2023-02-03T01:01:36.245Z,3.91
2023-02-03T01:02:40.450Z,3.90
2023-02-03T01:03:44.593Z,3.89
2023-02-03T01:04:48.726Z,3.88
2023-02-03T01:05:52.909Z,3.88
2023-02-03T01:06:57.184Z,3.87
2023-02-03T01:08:01.306Z,3.87
2023-02-03T01:09:05.459Z,3.85
2023-02-03T01:10:09.560Z,3.84
2023-02-03T01:11:13.796Z,3.83
2023-02-03T01:12:17.865Z,3.82
2023-02-03T01:13:22.141Z,3.81
2023-02-03T01:14:27.299Z,3.80
2023-02-03T01:15:31.102Z,3.80
2023-02-03T01:16:35.343Z,3.79
2023-02-03T01:17:39.460Z,3.78
2023-02-03T01:18:43.658Z,3.77
2023-02-03T01:19:48.053Z,3.75
2023-02-03T01:20:52.349Z,3.74
2023-02-03T01:21:59.564Z,3.73
2023-02-03T01:23:08.790Z,3.72
2023-02-03T01:24:11.553Z,3.71
2023-02-03T01:25:15.640Z,3.70
2023-02-03T01:26:19.722Z,3.70
2023-02-03T01:27:23.880Z,3.69
2023-02-03T01:28:28.067Z,3.69
2023-02-03T01:29:32.257Z,3.68
2023-02-03T01:30:36.462Z,3.67
2023-02-03T01:31:43.606Z,3.67
2023-02-03T01:32:46.717Z,3.67
2023-02-03T01:33:50.850Z,3.68
2023-02-03T01:34:55.023Z,3.68
2023-02-03T01:35:59.346Z,3.68
2023-02-03T01:37:03.481Z,3.68
2023-02-03T01:38:07.505Z,3.68
2023-02-03T01:39:11.810Z,3.68
2023-02-03T01:40:15.874Z,3.68
2023-02-03T01:41:20.059Z,3.68
2023-02-03T01:42:24.288Z,3.67
2023-02-03T01:43:28.346Z,3.67
2023-02-03T01:44:32.598Z,3.66
2023-02-03T01:45:36.709Z,3.66
2023-02-03T01:46:40.989Z,3.66
2023-02-03T01:47:45.058Z,3.66
2023-02-03T01:48:49.293Z,3.65
2023-02-03T01:49:56.494Z,3.65
2023-02-03T01:50:59.844Z,3.65
2023-02-03T01:52:04.052Z,3.65
2023-02-03T01:53:08.068Z,3.65
2023-02-03T01:54:12.288Z,3.66
2023-02-03T01:55:16.448Z,3.66
2023-02-03T01:56:20.604Z,3.66
2023-02-03T01:57:24.746Z,3.67
2023-02-03T01:58:29.075Z,3.67
2023-02-03T01:59:33.215Z,3.67
2023-02-03T02:00:37.238Z,3.68
2023-02-03T02:01:41.513Z,3.69
2023-02-03T02:02:45.706Z,3.69
2023-02-03T02:03:49.843Z,3.69
2023-02-03T02:04:54.024Z,3.70
2023-02-03T02:05:58.160Z,3.70
2023-02-03T02:07:02.335Z,3.70
2023-02-03T02:08:06.427Z,3.70
2023-02-03T02:09:10.697Z,3.70
2023-02-03T02:10:14.855Z,3.71
2023-02-03T02:11:18.927Z,3.71
2023-02-03T02:12:23.208Z,3.71
2023-02-03T02:13:27.350Z,3.70
2023-02-03T02:14:31.546Z,3.70
2023-02-03T02:15:35.951Z,3.70
2023-02-03T02:16:39.836Z,3.70
2023-02-03T02:17:44.107Z,3.70
2023-02-03T02:18:48.275Z,3.70
2023-02-03T02:19:52.475Z,3.69
2023-02-03T02:20:56.645Z,3.69
2023-02-03T02:22:00.798Z,3.69
2023-02-03T02:23:05.033Z,3.69
2023-02-03T02:24:09.141Z,3.68
2023-02-03T02:25:13.317Z,3.68
2023-02-03T02:27:44.644Z,3.69
2023-02-03T02:28:48.737Z,3.70
2023-02-03T02:29:52.941Z,3.71
2023-02-03T02:30:57.125Z,3.72
2023-02-03T02:32:04.293Z,3.72
2023-02-03T02:33:07.428Z,3.72
2023-02-03T02:34:11.591Z,3.72
2023-02-03T02:35:15.885Z,3.72
2023-02-03T02:36:20.014Z,3.71
2023-02-03T02:37:24.243Z,3.72
2023-02-03T02:38:28.593Z,3.72
2023-02-03T02:39:32.735Z,3.73
2023-02-03T02:40:39.945Z,3.74
2023-02-03T02:41:43.117Z,3.74
2023-02-03T02:42:47.254Z,3.75
2023-02-03T02:43:51.409Z,3.76
2023-02-03T02:44:55.604Z,3.76
2023-02-03T02:45:59.814Z,3.77
2023-02-03T02:47:03.827Z,3.78
2023-02-03T02:48:08.043Z,3.79
2023-02-03T02:49:12.248Z,3.80
2023-02-03T02:50:16.434Z,3.81
2023-02-03T02:51:20.741Z,3.81
2023-02-03T02:52:24.906Z,3.82
2023-02-03T02:53:29.095Z,3.82
2023-02-03T02:54:36.271Z,3.83
2023-02-03T02:55:39.521Z,3.83
2023-02-03T02:56:43.589Z,3.83
2023-02-03T02:57:47.801Z,3.83
2023-02-03T02:58:51.966Z,3.84
2023-02-03T02:59:56.175Z,3.85
2023-02-03T03:01:00.390Z,3.86
2023-02-03T03:02:04.607Z,3.87
2023-02-03T03:03:08.717Z,3.88
2023-02-03T03:04:12.953Z,3.89
2023-02-03T03:05:17.153Z,3.90
2023-02-03T03:06:21.347Z,3.91
2023-02-03T03:07:25.498Z,3.93
2023-02-03T03:08:29.649Z,3.94
2023-02-03T03:09:33.815Z,3.95
2023-02-03T03:10:38.025Z,3.96
2023-02-03T03:11:42.335Z,3.96
2023-02-03T03:12:46.503Z,3.97
2023-02-03T03:13:50.742Z,3.98
2023-02-03T03:14:54.904Z,3.99
2023-02-03T03:15:59.140Z,4.00
2023-02-03T03:17:03.410Z,4.01
2023-02-03T03:18:07.544Z,4.01
2023-02-03T03:19:11.605Z,4.03
2023-02-03T03:20:15.879Z,4.03
2023-02-03T03:21:20.130Z,4.04
2023-02-03T03:22:24.246Z,4.07
2023-02-03T03:23:28.419Z,4.08
2023-02-03T03:24:32.597Z,4.11
2023-02-03T03:25:36.956Z,4.13
2023-02-03T03:26:40.934Z,4.15
2023-02-03T03:27:45.265Z,4.17
2023-02-03T03:28:49.425Z,4.21
2023-02-03T03:29:53.669Z,4.23
2023-02-03T03:30:57.932Z,4.25
2023-02-03T03:32:02.039Z,4.26
2023-02-03T03:33:06.195Z,4.29
2023-02-03T03:34:10.510Z,4.30
2023-02-03T03:35:14.631Z,4.33
2023-02-03T03:36:18.883Z,4.34
2023-02-03T03:37:23.228Z,4.36
2023-02-03T03:38:27.337Z,4.38
2023-02-03T03:39:31.472Z,4.41
2023-02-03T03:40:35.967Z,4.43
2023-02-03T03:41:40.055Z,4.45
2023-02-03T03:42:44.241Z,4.47
2023-02-03T03:43:48.436Z,4.49
2023-02-03T03:44:52.625Z,4.51
2023-02-03T03:45:56.819Z,4.53
2023-02-03T03:47:01.108Z,4.55
2023-02-03T03:48:05.347Z,4.58
2023-02-03T03:49:09.515Z,4.59
2023-02-03T03:50:13.760Z,4.62
2023-02-03T03:51:17.936Z,4.64
2023-02-03T03:52:21.991Z,4.66
2023-02-03T03:53:26.253Z,4.69
2023-02-03T03:54:30.429Z,4.71
2023-02-03T03:55:34.633Z,4.73
2023-02-03T03:56:52.905Z,4.75
2023-02-03T03:57:55.870Z,4.78
2023-02-03T03:59:00.016Z,4.81
2023-02-03T04:00:04.209Z,4.83
2023-02-03T04:01:08.483Z,4.85
2023-02-03T04:02:12.706Z,4.88
2023-02-03T04:03:19.941Z,4.90
2023-02-03T04:04:23.122Z,4.93
2023-02-03T04:05:27.278Z,4.96
2023-02-03T04:06:31.508Z,4.98
2023-02-03T04:07:35.704Z,4.99
2023-02-03T04:08:39.941Z,5.02
2023-02-03T04:09:44.150Z,5.04
2023-02-03T04:10:48.323Z,5.06
2023-02-03T04:11:52.680Z,5.08
2023-02-03T04:12:56.904Z,5.10
2023-02-03T04:14:01.171Z,5.13
2023-02-03T04:15:05.320Z,5.15
2023-02-03T04:16:09.617Z,5.18
2023-02-03T04:17:13.713Z,5.20
2023-02-03T04:18:17.965Z,5.23
2023-02-03T04:19:22.081Z,5.25
2023-02-03T04:20:26.573Z,5.27
2023-02-03T04:21:30.528Z,5.29
2023-02-03T04:22:34.741Z,5.32
2023-02-03T04:23:38.924Z,5.35
2023-02-03T04:24:43.170Z,5.38
2023-02-03T04:25:47.380Z,5.40
2023-02-03T04:26:51.692Z,5.41
2023-02-03T04:27:58.958Z,5.43
2023-02-03T04:29:02.101Z,5.46
2023-02-03T04:30:06.326Z,5.48
2023-02-03T04:31:10.891Z,5.51
2023-02-03T04:32:14.790Z,5.54
2023-02-03T04:33:21.941Z,5.56
2023-02-03T04:34:25.171Z,5.57
2023-02-03T04:35:29.488Z,5.59
2023-02-03T04:36:33.707Z,5.62
2023-02-03T04:37:37.885Z,5.64
2023-02-03T04:38:42.064Z,5.66
2023-02-03T04:39:46.285Z,5.68
2023-02-03T04:40:56.516Z,5.70
2023-02-03T04:41:59.294Z,5.72
2023-02-03T04:43:03.517Z,5.73
2023-02-03T04:44:07.762Z,5.75
2023-02-03T04:45:11.934Z,5.76
2023-02-03T04:46:16.188Z,5.78
2023-02-03T04:47:20.387Z,5.79
2023-02-03T04:48:24.466Z,5.81
2023-02-03T04:49:28.644Z,5.83
2023-02-03T04:50:32.977Z,5.85
2023-02-03T04:51:37.117Z,5.86
2023-02-03T04:52:41.238Z,5.87
2023-02-03T04:53:45.479Z,5.89
2023-02-03T04:54:49.599Z,5.92
2023-02-03T04:55:53.844Z,5.94
2023-02-03T04:57:01.071Z,5.97
2023-02-03T04:58:04.336Z,5.98
2023-02-03T04:59:08.578Z,5.99
2023-02-03T05:00:12.768Z,6.02
2023-02-03T05:01:17.019Z,6.03
2023-02-03T05:02:21.231Z,6.05
2023-02-03T05:03:26.431Z,6.07
2023-02-03T05:04:29.651Z,6.09
2023-02-03T05:05:33.933Z,6.12
2023-02-03T05:06:44.162Z,6.15
2023-02-03T05:07:46.946Z,6.17
2023-02-03T05:08:51.134Z,6.19
2023-02-03T05:09:55.345Z,6.21
2023-02-03T05:11:01.865Z,6.23
2023-02-03T05:12:03.682Z,6.25
2023-02-03T05:13:07.998Z,6.27
2023-02-03T05:14:12.244Z,6.29
2023-02-03T05:15:16.401Z,6.30
2023-02-03T05:16:20.673Z,6.32
2023-02-03T05:17:24.789Z,6.34
2023-02-03T05:18:28.987Z,6.35
2023-02-03T05:19:33.192Z,6.37
2023-02-03T05:20:37.389Z,6.38
2023-02-03T05:21:41.545Z,6.39
2023-02-03T05:22:45.866Z,6.41
2023-02-03T05:23:49.996Z,6.44
2023-02-03T05:24:54.259Z,6.45
2023-02-03T05:25:58.527Z,6.47
2023-02-03T05:27:02.763Z,6.49
2023-02-03T05:28:06.994Z,6.51
2023-02-03T05:29:11.134Z,6.53
2023-02-03T05:30:15.432Z,6.56
2023-02-03T05:31:19.909Z,6.57
2023-02-03T05:32:23.870Z,6.58
2023-02-03T05:33:28.051Z,6.60
2023-02-03T05:34:32.354Z,6.62
2023-02-03T05:35:36.512Z,6.63
2023-02-03T05:36:40.706Z,6.64
2023-02-03T05:37:44.953Z,6.65
2023-02-03T05:38:49.136Z,6.66
2023-02-03T05:39:53.346Z,6.67
2023-02-03T05:40:57.532Z,6.68
2023-02-03T05:42:04.910Z,6.69
2023-02-03T05:43:08.175Z,6.69
2023-02-03T05:44:12.417Z,6.71
2023-02-03T05:45:16.594Z,6.73
2023-02-03T05:46:20.775Z,6.74
2023-02-03T05:47:25.028Z,6.75
2023-02-03T05:48:29.219Z,6.76
2023-02-03T05:49:33.447Z,6.78
2023-02-03T05:50:38.826Z,6.79
2023-02-03T05:51:41.831Z,6.80
2023-02-03T05:52:46.167Z,6.82
2023-02-03T05:53:50.312Z,6.83
2023-02-03T05:54:54.531Z,6.85
2023-02-03T05:55:58.708Z,6.86
2023-02-03T05:57:02.892Z,6.87
2023-02-03T05:58:07.107Z,6.88
2023-02-03T05:59:11.323Z,6.88
2023-02-03T06:00:21.515Z,6.90
2023-02-03T06:01:24.286Z,6.91
2023-02-03T06:02:28.454Z,6.92
2023-02-03T06:03:32.751Z,6.92
2023-02-03T06:04:36.968Z,6.93
2023-02-03T06:05:41.261Z,6.94
2023-02-03T06:06:45.344Z,6.94
2023-02-03T06:07:49.592Z,6.94
2023-02-03T06:08:53.750Z,6.95
2023-02-03T06:09:57.997Z,6.96
2023-02-03T06:11:02.231Z,6.97
2023-02-03T06:12:06.535Z,6.97
2023-02-03T06:13:10.655Z,6.98
2023-02-03T06:14:14.898Z,6.99
2023-02-03T06:15:19.204Z,6.99
2023-02-03T06:16:23.491Z,7.00
2023-02-03T06:17:27.604Z,7.01
2023-02-03T06:18:31.797Z,7.02
2023-02-03T06:19:36.060Z,7.02
2023-02-03T06:20:40.268Z,7.03
2023-02-03T06:21:44.631Z,7.03
2023-02-03T06:22:48.789Z,7.04
2023-02-03T06:23:53.043Z,7.04
2023-02-03T06:24:57.303Z,7.03
2023-02-03T06:26:01.516Z,7.03
2023-02-03T06:27:05.737Z,7.04
2023-02-03T06:28:10.031Z,7.05
2023-02-03T06:29:14.124Z,7.05
2023-02-03T06:30:18.486Z,7.05
2023-02-03T06:31:22.799Z,7.05
2023-02-03T06:32:26.812Z,7.05
2023-02-03T06:33:45.160Z,7.06
2023-02-03T06:34:48.130Z,7.08
2023-02-03T06:35:52.263Z,7.09
2023-02-03T06:36:56.493Z,7.09
2023-02-03T06:38:00.781Z,7.10
2023-02-03T06:39:05.143Z,7.10
2023-02-03T06:40:09.274Z,7.10
2023-02-03T06:41:13.468Z,7.10
2023-02-03T06:42:17.713Z,7.11
2023-02-03T06:43:21.895Z,7.11
2023-02-03T06:44:26.121Z,7.12
2023-02-03T06:45:30.349Z,7.12
2023-02-03T06:46:34.660Z,7.13
2023-02-03T06:47:38.733Z,7.14
2023-02-03T06:48:42.975Z,7.16
2023-02-03T06:49:47.185Z,7.16
2023-02-03T06:50:51.412Z,7.17
2023-02-03T06:51:55.729Z,7.17
2023-02-03T06:52:59.945Z,7.17
2023-02-03T06:54:04.167Z,7.18
2023-02-03T06:55:08.352Z,7.19
2023-02-03T06:56:12.560Z,7.19
2023-02-03T06:57:16.867Z,7.19
2023-02-03T06:58:21.024Z,7.20
2023-02-03T06:59:25.408Z,7.21
2023-02-03T07:00:29.983Z,7.21
2023-02-03T07:01:33.761Z,7.21
2023-02-03T07:02:37.974Z,7.22
2023-02-03T07:03:42.213Z,7.23
2023-02-03T07:04:46.529Z,7.24
2023-02-03T07:05:50.704Z,7.25
2023-02-03T07:06:55.005Z,7.26
2023-02-03T07:07:59.092Z,7.27
2023-02-03T07:09:03.333Z,7.27
2023-02-03T07:10:07.487Z,7.28
2023-02-03T07:11:11.698Z,7.28
2023-02-03T07:12:15.887Z,7.30
2023-02-03T07:13:20.060Z,7.31
2023-02-03T07:14:24.310Z,7.31
2023-02-03T07:15:28.533Z,7.31
2023-02-03T07:16:32.710Z,7.32
2023-02-03T07:17:36.978Z,7.33
2023-02-03T07:18:47.381Z,7.33
2023-02-03T07:19:46.183Z,7.34
2023-02-03T07:20:49.599Z,7.34
2023-02-03T07:21:53.812Z,7.35
2023-02-03T07:22:58.065Z,7.35
2023-02-03T07:24:02.376Z,7.36
2023-02-03T07:25:06.579Z,7.36
2023-02-03T07:26:10.748Z,7.36
2023-02-03T07:27:14.987Z,7.37
2023-02-03T07:28:19.236Z,7.38
2023-02-03T07:29:23.504Z,7.38
2023-02-03T07:30:27.950Z,7.39
2023-02-03T07:31:31.906Z,7.40
2023-02-03T07:32:36.042Z,7.40
2023-02-03T07:33:40.347Z,7.41
2023-02-03T07:34:44.558Z,7.41
2023-02-03T07:35:48.739Z,7.42
2023-02-03T07:36:52.967Z,7.42
2023-02-03T07:37:57.160Z,7.43
2023-02-03T07:39:01.397Z,7.44
2023-02-03T07:40:05.657Z,7.45
2023-02-03T07:41:09.944Z,7.46
2023-02-03T07:42:14.185Z,7.47
2023-02-03T07:43:18.434Z,7.47
2023-02-03T07:44:22.584Z,7.48
2023-02-03T07:45:26.786Z,7.49
2023-02-03T07:46:31.062Z,7.51
2023-02-03T07:47:35.097Z,7.51
2023-02-03T07:48:39.385Z,7.52
2023-02-03T07:49:43.675Z,7.52
2023-02-03T07:50:47.885Z,7.53
2023-02-03T07:51:52.107Z,7.54
2023-02-03T07:52:56.318Z,7.54
2023-02-03T07:54:00.527Z,7.55
2023-02-03T07:55:04.743Z,7.56
2023-02-03T07:56:08.966Z,7.57
2023-02-03T07:57:13.351Z,7.58
2023-02-03T07:58:17.464Z,7.59
2023-02-03T07:59:21.714Z,7.59
2023-02-03T08:00:26.315Z,7.60
2023-02-03T08:01:31.331Z,7.60
2023-02-03T08:02:34.416Z,7.59
2023-02-03T08:03:38.684Z,7.60
2023-02-03T08:04:42.929Z,7.60
2023-02-03T08:05:47.198Z,7.62
2023-02-03T08:06:51.375Z,7.62
2023-02-03T08:07:55.681Z,7.63
2023-02-03T08:08:59.941Z,7.64
2023-02-03T08:10:04.224Z,7.65
2023-02-03T08:11:08.457Z,7.65
2023-02-03T08:12:12.657Z,7.67
2023-02-03T08:13:19.970Z,7.68
2023-02-03T08:14:23.263Z,7.69
2023-02-03T08:15:27.506Z,7.70
2023-02-03T08:16:31.738Z,7.71
2023-02-03T08:17:35.887Z,7.72
2023-02-03T08:18:40.111Z,7.73
2023-02-03T08:19:44.335Z,7.74
2023-02-03T08:20:48.547Z,7.76
2023-02-03T08:21:52.823Z,7.77
2023-02-03T08:22:57.065Z,7.78
2023-02-03T08:24:01.344Z,7.79
2023-02-03T08:25:05.556Z,7.79
2023-02-03T08:26:09.807Z,7.79
2023-02-03T08:27:14.012Z,7.80
2023-02-03T08:28:18.381Z,7.80
2023-02-03T08:29:36.578Z,7.80
2023-02-03T08:30:39.560Z,7.80
2023-02-03T08:31:43.840Z,7.80
2023-02-03T08:32:47.995Z,7.78
2023-02-03T08:33:52.213Z,7.76
2023-02-03T08:34:56.498Z,7.75
2023-02-03T08:36:00.748Z,7.73
2023-02-03T08:37:05.044Z,7.71
2023-02-03T08:38:09.175Z,7.70
2023-02-03T08:39:13.429Z,7.68
2023-02-03T08:40:17.619Z,7.67
2023-02-03T08:41:35.930Z,7.66
2023-02-03T08:42:39.174Z,7.65
2023-02-03T08:43:43.300Z,7.65
2023-02-03T08:44:47.549Z,7.66
2023-02-03T08:45:51.855Z,7.65
2023-02-03T08:46:55.982Z,7.65
2023-02-03T08:48:00.182Z,7.65
2023-02-03T08:49:04.393Z,7.64
2023-02-03T08:50:08.683Z,7.64
2023-02-03T08:51:12.922Z,7.64
2023-02-03T08:52:19.056Z,7.63
2023-02-03T08:53:21.361Z,7.63
2023-02-03T08:54:25.556Z,7.62
2023-02-03T08:55:29.778Z,7.62
2023-02-03T08:56:34.017Z,7.60
2023-02-03T08:57:38.107Z,7.59
2023-02-03T08:58:42.461Z,7.58
2023-02-03T08:59:46.592Z,7.58
2023-02-03T09:00:50.913Z,7.57
2023-02-03T09:01:55.067Z,7.57
2023-02-03T09:03:13.351Z,7.57
2023-02-03T09:04:16.297Z,7.57
2023-02-03T09:05:20.543Z,7.58
2023-02-03T09:06:26.290Z,7.60
2023-02-03T09:07:28.913Z,7.61
2023-02-03T09:08:33.142Z,7.62
2023-02-03T09:09:37.366Z,7.62
2023-02-03T09:10:41.601Z,7.61
2023-02-03T09:11:45.819Z,7.61
2023-02-03T09:12:50.032Z,7.61
2023-02-03T09:13:54.260Z,7.60
2023-02-03T09:14:58.457Z,7.61
2023-02-03T09:16:02.817Z,7.61
2023-02-03T09:17:06.876Z,7.62
2023-02-03T09:18:11.119Z,7.63
2023-02-03T09:19:15.342Z,7.63
2023-02-03T09:20:19.683Z,7.63
2023-02-03T09:21:33.109Z,7.63
2023-02-03T09:22:28.009Z,7.63
2023-02-03T09:23:32.239Z,7.62
2023-02-03T09:24:36.536Z,7.63
2023-02-03T09:25:41.609Z,7.64
2023-02-03T09:26:45.077Z,7.65
2023-02-03T09:27:49.310Z,7.65
2023-02-03T09:28:53.435Z,7.65
2023-02-03T09:29:57.685Z,7.65
2023-02-03T09:31:01.966Z,7.66
2023-02-03T09:32:06.200Z,7.65
2023-02-03T09:33:10.372Z,7.64
2023-02-03T09:34:14.544Z,7.64
2023-02-03T09:35:18.814Z,7.65
2023-02-03T09:36:23.068Z,7.66
2023-02-03T09:37:27.217Z,7.67
2023-02-03T09:38:31.463Z,7.68
2023-02-03T09:39:35.746Z,7.68
2023-02-03T09:40:39.929Z,7.68
2023-02-03T09:41:44.166Z,7.68
2023-02-03T09:42:48.351Z,7.68
2023-02-03T09:43:52.564Z,7.72
2023-02-03T09:44:56.809Z,7.73
2023-02-03T09:46:01.111Z,7.75
2023-02-03T09:47:06.051Z,7.75
2023-02-03T09:48:09.513Z,7.75
2023-02-03T09:49:13.721Z,7.76
2023-02-03T09:50:18.010Z,7.77
2023-02-03T09:51:22.184Z,7.78
2023-02-03T09:52:26.366Z,7.80
2023-02-03T09:53:30.589Z,7.80
2023-02-03T09:54:34.937Z,7.81
2023-02-03T09:55:39.142Z,7.82
2023-02-03T09:56:43.346Z,7.83
2023-02-03T09:57:47.551Z,7.85
2023-02-03T09:58:51.766Z,7.88
2023-02-03T09:59:55.997Z,7.92
2023-02-03T10:01:00.383Z,7.95
2023-02-03T10:02:04.497Z,7.97
2023-02-03T10:03:08.754Z,7.98
2023-02-03T10:04:13.033Z,7.99
2023-02-03T10:05:17.139Z,8.01
2023-02-03T10:06:21.365Z,8.01
2023-02-03T10:07:25.691Z,8.02
2023-02-03T10:08:29.885Z,8.04
2023-02-03T10:09:34.092Z,8.04
2023-02-03T10:10:38.312Z,8.04
2023-02-03T10:11:42.591Z,8.04
2023-02-03T10:12:46.782Z,8.04
2023-02-03T10:13:51.030Z,8.03
2023-02-03T10:14:55.275Z,8.03
2023-02-03T10:15:59.459Z,8.04
2023-02-03T10:17:03.722Z,8.06
2023-02-03T10:18:07.919Z,8.10
2023-02-03T10:19:18.367Z,8.12
2023-02-03T10:20:21.129Z,8.15
2023-02-03T10:21:25.454Z,8.17
2023-02-03T10:22:29.773Z,8.20
2023-02-03T10:23:34.059Z,8.23
2023-02-03T10:24:38.191Z,8.26
2023-02-03T10:25:42.391Z,8.28
2023-02-03T10:26:46.670Z,8.31
2023-02-03T10:27:50.940Z,8.32
2023-02-03T10:28:55.084Z,8.34
2023-02-03T10:29:59.441Z,8.36
2023-02-03T10:31:03.721Z,8.38
2023-02-03T10:32:08.005Z,8.40
2023-02-03T10:33:11.992Z,8.42
2023-02-03T10:34:16.236Z,8.43
2023-02-03T10:35:20.489Z,8.43
2023-02-03T10:36:24.694Z,8.43
2023-02-03T10:37:30.299Z,8.41
2023-02-03T10:38:33.253Z,8.41
2023-02-03T10:39:37.520Z,8.41
2023-02-03T10:40:41.851Z,8.40
2023-02-03T10:41:46.009Z,8.39
2023-02-03T10:42:50.212Z,8.39
2023-02-03T10:43:56.043Z,8.38
2023-02-03T10:44:58.613Z,8.36
2023-02-03T10:46:02.989Z,8.33
2023-02-03T10:47:07.127Z,8.31
2023-02-03T10:48:11.362Z,8.30
2023-02-03T10:49:15.614Z,8.29
2023-02-03T10:50:19.896Z,8.29
2023-02-03T10:51:24.183Z,8.28
2023-02-03T10:52:28.378Z,8.28
2023-02-03T10:53:32.624Z,8.26
2023-02-03T10:54:36.841Z,8.27
2023-02-03T10:55:41.092Z,8.27
2023-02-03T10:56:45.273Z,8.27
2023-02-03T10:57:49.520Z,8.28
2023-02-03T10:58:53.853Z,8.29
2023-02-03T10:59:58.000Z,8.29
2023-02-03T11:01:02.185Z,8.29
2023-02-03T11:02:06.509Z,8.28
2023-02-03T11:03:10.698Z,8.24
2023-02-03T11:04:15.003Z,8.22
2023-02-03T11:05:19.214Z,8.20
2023-02-03T11:06:23.411Z,8.16
2023-02-03T11:07:27.675Z,8.13
2023-02-03T11:08:31.863Z,8.07
2023-02-03T11:09:36.064Z,8.05
2023-02-03T11:10:40.273Z,8.01
2023-02-03T11:11:44.532Z,7.95
2023-02-03T11:12:48.683Z,7.91
2023-02-03T11:13:52.948Z,7.86
2023-02-03T11:14:57.201Z,7.84
2023-02-03T11:16:01.550Z,7.83
2023-02-03T11:17:05.675Z,7.81
2023-02-03T11:18:09.887Z,7.80
2023-02-03T11:19:14.226Z,7.78
2023-02-03T11:20:18.458Z,7.77
2023-02-03T11:21:22.744Z,7.76
2023-02-03T11:22:26.894Z,7.75
2023-02-03T11:23:31.129Z,7.73
2023-02-03T11:24:35.339Z,7.70
2023-02-03T11:25:39.636Z,7.67
2023-02-03T11:26:43.884Z,7.66
2023-02-03T11:27:48.163Z,7.65
2023-02-03T11:28:52.235Z,7.64
2023-02-03T11:29:56.398Z,7.64
2023-02-03T11:31:00.800Z,7.63
2023-02-03T11:32:04.962Z,7.63
2023-02-03T11:33:09.078Z,7.62
2023-02-03T11:34:13.298Z,7.62
2023-02-03T11:35:17.520Z,7.60
2023-02-03T11:36:21.781Z,7.56
2023-02-03T11:37:26.065Z,7.49
2023-02-03T11:38:30.337Z,7.45
2023-02-03T11:39:34.640Z,7.44
2023-02-03T11:40:38.816Z,7.42
2023-02-03T11:41:43.056Z,7.42
2023-02-03T11:42:47.256Z,7.42
2023-02-03T11:43:51.464Z,7.40
2023-02-03T11:44:55.714Z,7.40
2023-02-03T11:46:00.016Z,7.39
2023-02-03T11:47:04.164Z,7.35
2023-02-03T11:48:08.500Z,7.34
2023-02-03T11:49:12.614Z,7.32
2023-02-03T11:50:16.944Z,7.31
2023-02-03T11:51:21.090Z,7.29
2023-02-03T11:52:25.144Z,7.31
2023-02-03T11:53:29.449Z,7.32
2023-02-03T11:54:33.719Z,7.35
2023-02-03T11:55:37.898Z,7.36
2023-02-03T11:56:42.207Z,7.37
2023-02-03T11:57:46.352Z,7.40
2023-02-03T11:58:50.501Z,7.42
2023-02-03T11:59:54.698Z,7.43
2023-02-03T12:00:59.037Z,7.46
2023-02-03T12:02:03.281Z,7.48
2023-02-03T12:03:07.535Z,7.48
2023-02-03T12:04:11.697Z,7.48
2023-02-03T12:05:15.864Z,7.46
2023-02-03T12:06:20.142Z,7.44
2023-02-03T12:07:24.285Z,7.43
2023-02-03T12:08:28.509Z,7.43
2023-02-03T12:09:32.729Z,7.42
2023-02-03T12:10:37.074Z,7.36
2023-02-03T12:11:41.243Z,7.34
2023-02-03T12:12:45.399Z,7.31
2023-02-03T12:13:49.637Z,7.31
2023-02-03T12:14:53.848Z,7.31
2023-02-03T12:15:58.141Z,7.31
2023-02-03T12:17:02.317Z,7.31
2023-02-03T12:18:06.641Z,7.30
2023-02-03T12:19:10.814Z,7.30
2023-02-03T12:20:14.929Z,7.33
2023-02-03T12:21:19.165Z,7.35
2023-02-03T12:22:23.359Z,7.36
2023-02-03T12:23:27.681Z,7.39
2023-02-03T12:24:31.901Z,7.36
2023-02-03T12:25:36.216Z,7.35
2023-02-03T12:26:40.400Z,7.37
2023-02-03T12:27:44.767Z,7.39
2023-02-03T12:28:48.841Z,7.42
2023-02-03T12:31:20.490Z,7.53
2023-02-03T12:32:24.485Z,7.54
2023-02-03T12:33:28.720Z,7.53
2023-02-03T12:34:33.022Z,7.49
2023-02-03T12:35:37.122Z,7.44
2023-02-03T12:36:41.440Z,7.44
2023-02-03T12:37:45.614Z,7.38
2023-02-03T12:38:50.003Z,7.34
2023-02-03T12:39:54.137Z,7.31
2023-02-03T12:40:58.379Z,7.32
2023-02-03T12:42:02.589Z,7.32
2023-02-03T12:43:06.847Z,7.39
2023-02-03T12:44:11.031Z,7.48
2023-02-03T12:45:15.249Z,7.54
2023-02-03T12:46:19.655Z,7.56
2023-02-03T12:47:23.748Z,7.56
2023-02-03T12:48:28.068Z,7.58
2023-02-03T12:49:32.350Z,7.54
2023-02-03T12:50:36.558Z,7.50
2023-02-03T12:51:40.757Z,7.49
2023-02-03T12:52:44.982Z,7.46
2023-02-03T12:53:49.283Z,7.45
2023-02-03T12:54:53.612Z,7.42
2023-02-03T12:55:57.767Z,7.43
2023-02-03T12:57:01.989Z,7.38
2023-02-03T12:58:06.337Z,7.36
2023-02-03T12:59:10.647Z,7.35
2023-02-03T13:00:14.969Z,7.34
2023-02-03T13:01:19.091Z,7.33
2023-02-03T13:02:23.299Z,7.32
2023-02-03T13:03:27.509Z,7.35
2023-02-03T13:04:31.738Z,7.35
2023-02-03T13:05:35.979Z,7.37
2023-02-03T13:06:40.227Z,7.39
2023-02-03T13:07:44.497Z,7.40
2023-02-03T13:08:48.652Z,7.43
2023-02-03T13:09:52.857Z,7.44
2023-02-03T13:10:57.075Z,7.47
2023-02-03T13:12:01.342Z,7.45
2023-02-03T13:13:05.542Z,7.46
2023-02-03T13:14:09.744Z,7.46
2023-02-03T13:15:14.090Z,7.49
2023-02-03T13:16:18.308Z,7.51
2023-02-03T13:17:22.539Z,7.53
2023-02-03T13:18:26.784Z,7.55
2023-02-03T13:19:30.943Z,7.59
2023-02-03T13:20:35.077Z,7.60
2023-02-03T13:21:39.342Z,7.59
2023-02-03T13:22:43.550Z,7.59
2023-02-03T13:23:47.818Z,7.60
2023-02-03T13:24:52.120Z,7.62
2023-02-03T13:25:56.369Z,7.64
2023-02-03T13:27:00.555Z,7.66
2023-02-03T13:28:04.782Z,7.70
2023-02-03T13:29:08.951Z,7.72
2023-02-03T13:30:13.238Z,7.75
2023-02-03T13:31:17.717Z,7.75
2023-02-03T13:32:21.682Z,7.76
2023-02-03T13:33:25.897Z,7.76
2023-02-03T13:34:30.148Z,7.75
2023-02-03T13:35:34.833Z,7.73
2023-02-03T13:36:38.626Z,7.71
2023-02-03T13:37:42.821Z,7.70
2023-02-03T13:38:47.019Z,7.67
2023-02-03T13:39:51.278Z,7.66
2023-02-03T13:40:55.573Z,7.64
2023-02-03T13:41:59.772Z,7.63
2023-02-03T13:43:04.010Z,7.63
2023-02-03T13:44:08.225Z,7.63
2023-02-03T13:45:26.468Z,7.63
2023-02-03T13:46:29.659Z,7.62
2023-02-03T13:47:36.807Z,7.62
2023-02-03T13:48:40.015Z,7.61
2023-02-03T13:49:44.178Z,7.61
2023-02-03T13:50:48.466Z,7.60
2023-02-03T13:51:52.635Z,7.59
2023-02-03T13:52:57.440Z,7.60
2023-02-03T13:54:01.164Z,7.59
2023-02-03T13:55:08.342Z,7.60
2023-02-03T13:56:11.512Z,7.60
2023-02-03T13:57:15.790Z,7.59
2023-02-03T13:58:19.988Z,7.57
2023-02-03T13:59:24.288Z,7.56
2023-02-03T14:00:28.443Z,7.55
2023-02-03T14:01:32.702Z,7.53
2023-02-03T14:02:36.868Z,7.52
2023-02-03T14:03:41.083Z,7.52
2023-02-03T14:04:45.475Z,7.52
2023-02-03T14:05:49.502Z,7.52
2023-02-03T14:06:53.744Z,7.51
2023-02-03T14:07:57.983Z,7.49
2023-02-03T14:09:02.169Z,7.48
2023-02-03T14:10:06.352Z,7.47
2023-02-03T14:11:10.595Z,7.47
2023-02-03T14:12:14.792Z,7.46
2023-02-03T14:13:18.874Z,7.45
2023-02-03T14:14:23.220Z,7.45
2023-02-03T14:15:27.775Z,7.44
2023-02-03T14:16:31.668Z,7.43
2023-02-03T14:17:35.940Z,7.41
2023-02-03T14:18:40.106Z,7.39
2023-02-03T14:19:44.315Z,7.38
2023-02-03T14:20:48.525Z,7.36